EGVO METAR and TAF | Updated Today

EGVO METAR

RAF Odiham

Observation time: 75 min. ago

EGVO 080550Z AUTO 21018KT 9999 NCD 05/01 Q0987

Need help? Read our tutorial on how to read METARs or read the parsed version below.

RAF Odiham (EGVO) METAR

  • Weather conditions on Wed, 08 Dec 2021 05:50:00 +0000 (75 min. ago):
  • Present conditions: Dry
  • Clouds: Nil cloud detected
  • Visibility: Greater than 10 km
  • Wind: 210 degrees at 18 knots
  • Temperature: 5 celsius
  • Dew point: 1 celsius
  • Pressure: 987 millibars
  • Remarks: None


Useful to know...

EGVO TAF

RAF Odiham

TAF EGVO 072241Z 0800/0812 21016KT CAVOK TEMPO 0800/0812 21018G28KT PROB30 TEMPO 0807/0812 SCT018
Observation time: 8:24 hr. ago
Need help? Read our tutorial on how to read TAFs or read the parsed version below.

Parsed version of TAF for RAF Odiham (EGVO)

  • From 08 December at 00:00 UTC, to day 08 of the month at 12:00 UTC
  • Visibility: Greater than 10 km
  • Wind: 210 degrees at 16
  • Expected to arise temporarily, from 08 December at 00:00 UTC, to day 08 of the month at 12:00 UTC
  • Wind: 210 degrees at 18
  • Expected to arise temporarily, from 08 December at 07:00 UTC, to day 08 of the month at 12:00 UTC
    Probability of 30%
  • Clouds: Scattered at 549 meters